createdAt,value
2022-07-29T00:07:50.716Z,18.6
2022-07-29T00:17:51.157Z,18.4
2022-07-29T00:27:52.069Z,18.3
2022-07-29T00:37:52.222Z,18.2
2022-07-29T00:47:52.772Z,18.1
2022-07-29T00:57:53.311Z,17.9
2022-07-29T01:07:54.278Z,17.9
2022-07-29T01:17:54.678Z,17.8
2022-07-29T01:37:56.240Z,17.5
2022-07-29T02:37:59.496Z,17
2022-07-29T02:47:59.627Z,16.9
2022-07-29T02:58:00.462Z,16.8
2022-07-29T03:08:00.725Z,16.8
2022-07-29T03:18:01.794Z,16.8
2022-07-29T03:28:01.971Z,16.7
2022-07-29T03:38:02.241Z,16.9
2022-07-29T03:48:02.638Z,16.9
2022-07-29T03:58:03.442Z,17
2022-07-29T04:08:04.274Z,17.1
2022-07-29T04:18:05.164Z,17.1
2022-07-29T04:28:05.266Z,17
2022-07-29T04:38:05.797Z,16.9
2022-07-29T04:48:06.106Z,16.8
2022-07-29T04:58:06.359Z,16.7
2022-07-29T05:08:07.397Z,16.5
2022-07-29T05:18:08.363Z,16.4
2022-07-29T05:28:08.783Z,16.1
2022-07-29T05:48:09.503Z,15.8
2022-07-29T05:58:09.619Z,15.9
2022-07-29T06:08:10.692Z,16
2022-07-29T06:18:11.741Z,16
2022-07-29T06:28:12.693Z,15.9
2022-07-29T06:48:13.302Z,15.8
2022-07-29T06:58:14.121Z,15.8
2022-07-29T07:08:14.777Z,16
2022-07-29T07:18:15.421Z,16.3
2022-07-29T07:28:16.029Z,16.4
2022-07-29T07:38:16.855Z,16.5
2022-07-29T07:48:17.038Z,16.7
2022-07-29T07:58:17.278Z,17
2022-07-29T08:08:18.363Z,17.2
2022-07-29T08:18:19.183Z,16.9
2022-07-29T08:28:19.650Z,17.1
2022-07-29T08:38:20.642Z,17.2
2022-07-29T08:48:21.065Z,17.5
2022-07-29T08:58:22.318Z,17.8
2022-07-29T09:08:22.168Z,17.9
2022-07-29T09:18:30.301Z,17.8
2022-07-29T09:28:23.057Z,17.7
2022-07-29T09:38:23.865Z,17.5
2022-07-29T09:48:24.630Z,17.4
2022-07-29T10:08:25.835Z,17.3
2022-07-29T10:18:26.719Z,17.3
2022-07-29T10:38:27.714Z,17.6
2022-07-29T10:58:29.025Z,17.5
2022-07-29T11:08:29.964Z,17.6
2022-07-29T11:18:31.064Z,18
2022-07-29T11:18:52.935Z,18
2022-07-29T11:28:37.465Z,18
2022-07-29T11:38:38.372Z,18
2022-07-29T11:48:39.359Z,18.2
2022-07-29T11:58:39.513Z,18.5
2022-07-29T12:08:39.740Z,19.1
2022-07-29T12:18:39.829Z,20.5
2022-07-29T12:28:40.366Z,22.6
2022-07-29T12:38:41.273Z,24.1
2022-07-29T12:58:42.041Z,25.5
2022-07-29T13:08:42.727Z,25.2
2022-07-29T13:18:43.220Z,24.5
2022-07-29T13:28:44.074Z,23.7
2022-07-29T13:38:44.170Z,23.2
2022-07-29T13:58:45.437Z,23.1
2022-07-29T14:08:46.173Z,23
2022-07-29T14:18:46.595Z,23
2022-07-29T14:28:47.230Z,23.4
2022-07-29T14:38:47.377Z,24.5
2022-07-29T14:48:47.522Z,25.4
2022-07-29T15:08:49.203Z,26.6
2022-07-29T15:18:49.314Z,25.1
2022-07-29T15:28:49.640Z,24.6
2022-07-29T15:38:50.673Z,24.3
2022-07-29T15:48:50.898Z,25
2022-07-29T16:08:51.771Z,26.4
2022-07-29T16:18:52.428Z,26.7
2022-07-29T16:58:54.187Z,24.6
2022-07-29T17:08:54.790Z,24.3
2022-07-29T17:18:55.294Z,23.9
2022-07-29T17:28:55.842Z,23.5
2022-07-29T17:38:56.442Z,23.3
2022-07-29T17:48:57.046Z,23.2
2022-07-29T17:58:58.063Z,23.2
2022-07-29T18:08:58.841Z,23
2022-07-29T18:18:59.837Z,22.8
2022-07-29T18:29:00.892Z,22.6
2022-07-29T18:39:01.754Z,22.4
2022-07-29T18:49:02.681Z,22.2
2022-07-29T18:59:02.989Z,21.9
2022-07-29T19:09:03.893Z,21.6
2022-07-29T19:19:04.006Z,21.3
2022-07-29T19:29:04.479Z,20.8
2022-07-29T19:39:05.183Z,20.5
2022-07-29T19:49:05.307Z,20.1
2022-07-29T19:59:05.522Z,19.8
2022-07-29T20:09:05.980Z,19.5
2022-07-29T20:19:06.511Z,19.2
2022-07-29T20:29:07.425Z,19.1
2022-07-29T20:39:07.922Z,18.8
2022-07-29T20:49:09.023Z,18.7
2022-07-29T20:59:09.480Z,18.6
2022-07-29T21:09:10.009Z,18.4
2022-07-29T21:29:11.270Z,18.1
2022-07-29T21:49:12.307Z,17.7
2022-07-29T21:59:12.897Z,17.6
2022-07-29T22:19:14.258Z,17.4
2022-07-29T22:29:14.616Z,17.3
2022-07-29T22:39:15.516Z,17.2
2022-07-29T22:49:15.450Z,17.1
2022-07-29T22:59:16.211Z,16.9
2022-07-29T23:09:16.373Z,16.8
2022-07-29T23:19:17.055Z,16.6
2022-07-29T23:39:18.026Z,16.4
2022-07-29T23:49:18.999Z,16.3
2022-07-29T23:59:20.071Z,16.1
